createdAt,value
2018-09-05T00:00:34.153Z,99790.95
2018-09-05T00:02:10.478Z,99795.03
2018-09-05T00:03:45.986Z,99793.03
2018-09-05T00:05:21.507Z,99795.50
2018-09-05T00:06:57.042Z,99747.82
2018-09-05T00:08:32.458Z,99795.08
2018-09-05T00:10:07.897Z,99792.28
2018-09-05T00:11:43.328Z,99798.30
2018-09-05T00:13:18.808Z,99791.16
2018-09-05T00:14:54.221Z,99790.41
2018-09-05T00:16:30.147Z,99790.11
2018-09-05T00:18:05.648Z,99787.94
2018-09-05T00:19:41.100Z,99786.50
2018-09-05T00:21:16.810Z,99789.63
2018-09-05T00:22:53.068Z,99789.13
2018-09-05T00:24:28.586Z,99789.59
2018-09-05T00:26:04.047Z,99785.33
2018-09-05T00:27:39.463Z,99787.34
2018-09-05T00:29:14.931Z,99789.32
2018-09-05T00:30:50.367Z,99787.50
2018-09-05T00:32:26.172Z,99782.95
2018-09-05T00:34:01.616Z,99786.69
2018-09-05T00:35:37.018Z,99789.26
2018-09-05T00:37:12.464Z,99787.12
2018-09-05T00:38:47.892Z,99785.02
2018-09-05T00:40:23.363Z,99793.13
2018-09-05T00:41:58.752Z,99788.74
2018-09-05T00:43:34.172Z,99786.53
2018-09-05T00:45:09.575Z,99784.50
2018-09-05T00:46:45.029Z,99787.97
2018-09-05T00:48:20.436Z,99793.61
2018-09-05T00:49:58.801Z,99799.58
2018-09-05T00:51:34.226Z,99800.19
2018-09-05T00:53:09.689Z,99791.56
2018-09-05T00:54:45.048Z,99795.69
2018-09-05T00:56:20.620Z,99792.60
2018-09-05T00:57:56.033Z,99800.61
2018-09-05T00:59:31.460Z,99796.33
2018-09-05T01:01:07.553Z,99796.07
2018-09-05T01:02:42.942Z,99798.34
2018-09-05T01:04:18.363Z,99797.85
2018-09-05T01:05:53.786Z,99796.49
2018-09-05T01:07:29.585Z,99797.43
2018-09-05T01:09:06.899Z,99794.31
2018-09-05T01:10:42.322Z,99796.78
2018-09-05T01:12:18.696Z,99794.32
2018-09-05T01:13:54.098Z,99792.53
2018-09-05T01:15:29.532Z,99791.05
2018-09-05T01:17:05.293Z,99791.72
2018-09-05T01:18:40.753Z,99791.25
2018-09-05T01:20:16.163Z,99790.27
2018-09-05T01:21:51.558Z,99792.17
2018-09-05T01:23:26.994Z,99788.88
2018-09-05T01:25:02.479Z,99798.92
2018-09-05T01:26:37.917Z,99792.73
2018-09-05T01:28:13.435Z,99795.48
2018-09-05T01:29:48.843Z,99798.66
2018-09-05T01:31:24.327Z,99796.29
2018-09-05T01:33:00.173Z,99800.76
2018-09-05T01:34:35.782Z,99797.48
2018-09-05T01:36:15.272Z,99793.69
2018-09-05T01:37:50.737Z,99796.80
2018-09-05T01:39:26.184Z,99796.73
2018-09-05T01:41:01.615Z,99794.63
2018-09-05T01:42:37.053Z,99796.40
2018-09-05T01:44:12.485Z,99797.88
2018-09-05T01:45:47.934Z,99805.61
2018-09-05T01:47:23.351Z,99795.47
2018-09-05T01:48:58.766Z,99797.99
2018-09-05T01:50:39.686Z,99800.92
2018-09-05T01:52:15.106Z,99802.93
2018-09-05T01:53:50.498Z,99806.29
2018-09-05T01:55:25.900Z,99805.41
2018-09-05T01:57:01.369Z,99806.72
2018-09-05T01:58:36.799Z,99809.36
2018-09-05T02:00:16.426Z,99808.80
2018-09-05T02:01:51.864Z,99806.38
2018-09-05T02:03:27.286Z,99803.44
2018-09-05T02:05:02.690Z,99807.92
2018-09-05T02:06:38.139Z,99810.70
2018-09-05T02:08:13.569Z,99810.15
2018-09-05T02:09:48.961Z,99813.36
2018-09-05T02:11:24.370Z,99810.86
2018-09-05T02:12:59.962Z,99805.87
2018-09-05T02:14:35.446Z,99807.68
2018-09-05T02:16:10.930Z,99805.66
2018-09-05T02:17:46.308Z,99807.80
2018-09-05T02:19:23.720Z,99810.41
2018-09-05T02:20:59.151Z,99808.20
2018-09-05T02:22:34.558Z,99805.91
2018-09-05T02:24:09.966Z,99806.80
2018-09-05T02:25:45.400Z,99814.71
2018-09-05T02:27:20.804Z,99808.56
2018-09-05T02:28:56.224Z,99811.34
2018-09-05T02:30:31.697Z,99812.06
2018-09-05T02:32:07.084Z,99811.70
2018-09-05T02:33:42.544Z,99817.89
2018-09-05T02:35:17.927Z,99817.01
2018-09-05T02:36:53.376Z,99814.80
2018-09-05T02:38:28.776Z,99818.30
2018-09-05T02:40:04.206Z,99812.70
2018-09-05T02:41:40.140Z,99816.05
2018-09-05T02:43:21.236Z,99814.28
2018-09-05T02:44:56.669Z,99819.39
2018-09-05T02:46:32.106Z,99814.03
2018-09-05T02:48:07.518Z,99814.20
2018-09-05T02:49:42.922Z,99811.70
2018-09-05T02:51:18.346Z,99813.27
2018-09-05T02:52:54.344Z,99809.20
2018-09-05T02:54:29.789Z,99807.64
2018-09-05T02:56:05.233Z,99804.74
2018-09-05T02:57:40.655Z,99803.22
2018-09-05T02:59:16.109Z,99801.52
2018-09-05T03:00:51.521Z,99805.42
2018-09-05T03:02:26.933Z,99807.44
2018-09-05T03:04:02.326Z,99807.16
2018-09-05T03:05:37.821Z,99815.23
2018-09-05T03:07:13.199Z,99809.28
2018-09-05T03:08:48.565Z,99807.56
2018-09-05T03:10:24.022Z,99809.73
2018-09-05T03:12:00.531Z,99808.61
2018-09-05T03:13:35.962Z,99806.15
2018-09-05T03:15:11.426Z,99812.30
2018-09-05T03:16:47.015Z,99813.59
2018-09-05T03:18:22.412Z,99809.89
2018-09-05T03:19:57.837Z,99812.38
2018-09-05T03:21:33.917Z,99814.27
2018-09-05T03:23:09.800Z,99808.16
2018-09-05T03:24:45.193Z,99814.44
2018-09-05T03:26:20.636Z,99810.66
2018-09-05T03:27:56.044Z,99807.48
2018-09-05T03:29:31.484Z,99813.39
2018-09-05T03:31:07.100Z,99810.33
2018-09-05T03:32:42.747Z,99803.94
2018-09-05T03:34:17.952Z,99807.11
2018-09-05T03:35:53.395Z,99810.23
2018-09-05T03:37:28.824Z,99805.94
2018-09-05T03:39:05.760Z,99809.39
2018-09-05T03:40:41.182Z,99812.69
2018-09-05T03:42:16.648Z,99812.02
2018-09-05T03:43:52.045Z,99816.61
2018-09-05T03:45:27.576Z,99815.40
2018-09-05T03:47:03.612Z,99819.27
2018-09-05T03:48:39.063Z,99815.53
2018-09-05T03:50:14.550Z,99820.31
2018-09-05T03:51:50.006Z,99822.16
2018-09-05T03:53:26.471Z,99818.70
2018-09-05T03:55:01.908Z,99817.98
2018-09-05T03:56:37.336Z,99824.05
2018-09-05T03:58:12.760Z,99821.91
2018-09-05T03:59:48.278Z,99821.48
2018-09-05T04:01:23.742Z,99827.03
2018-09-05T04:02:59.383Z,99824.17
2018-09-05T04:04:34.778Z,99823.45
2018-09-05T04:06:10.204Z,99825.50
2018-09-05T04:07:45.629Z,99823.16
2018-09-05T04:09:21.068Z,99820.39
2018-09-05T04:10:56.541Z,99822.97
2018-09-05T04:12:32.963Z,99827.23
2018-09-05T04:14:08.386Z,99829.61
2018-09-05T04:15:43.803Z,99833.67
2018-09-05T04:17:19.253Z,99831.55
2018-09-05T04:18:54.666Z,99835.28
2018-09-05T04:20:30.257Z,99837.41
2018-09-05T04:22:05.750Z,99834.98
2018-09-05T04:23:45.664Z,99839.81
2018-09-05T04:25:21.079Z,99835.44
2018-09-05T04:26:56.593Z,99829.70
2018-09-05T04:28:32.021Z,99837.25
2018-09-05T04:30:07.566Z,99836.63
2018-09-05T04:31:43.024Z,99845.42
2018-09-05T04:33:18.535Z,99842.16
2018-09-05T04:34:54.097Z,99844.65
2018-09-05T04:36:29.628Z,99839.47
2018-09-05T04:38:05.082Z,99851.49
2018-09-05T04:39:40.547Z,99848.20
2018-09-05T04:41:16.020Z,99851.47
2018-09-05T04:42:51.439Z,99849.68
2018-09-05T04:44:26.849Z,99852.61
2018-09-05T04:46:02.335Z,99850.95
2018-09-05T04:47:37.778Z,99849.31
2018-09-05T04:49:13.213Z,99854.02
2018-09-05T04:50:48.611Z,99844.63
2018-09-05T04:52:24.092Z,99851.88
2018-09-05T04:53:59.561Z,99848.41
2018-09-05T04:55:35.017Z,99853.31
2018-09-05T04:57:10.609Z,99852.52
2018-09-05T04:58:45.995Z,99852.24
2018-09-05T05:00:21.641Z,99855.73
2018-09-05T05:01:57.201Z,99861.23
2018-09-05T05:03:32.615Z,99854.39
2018-09-05T05:05:08.105Z,99857.57
2018-09-05T05:06:43.533Z,99864.01
2018-09-05T05:08:19.005Z,99865.16
2018-09-05T05:09:54.515Z,99870.98
2018-09-05T05:11:30.002Z,99866.22
2018-09-05T05:13:05.498Z,99872.50
2018-09-05T05:14:41.061Z,99875.77
2018-09-05T05:16:16.552Z,99874.78
2018-09-05T05:17:51.971Z,99877.52
2018-09-05T05:19:27.468Z,99875.27
2018-09-05T05:21:02.888Z,99870.20
2018-09-05T05:22:38.424Z,99879.09
2018-09-05T05:24:13.892Z,99872.45
2018-09-05T05:25:49.408Z,99875.88
2018-09-05T05:27:25.831Z,99876.03
2018-09-05T05:29:01.641Z,99880.83
2018-09-05T05:30:37.035Z,99879.22
2018-09-05T05:32:12.437Z,99877.61
2018-09-05T05:33:47.910Z,99876.90
2018-09-05T05:35:23.292Z,99825.64
2018-09-05T05:36:58.781Z,99879.02
2018-09-05T05:38:34.175Z,99881.31
2018-09-05T05:40:09.628Z,99876.92
2018-09-05T05:41:45.147Z,99889.77
2018-09-05T05:43:21.200Z,99885.08
2018-09-05T05:44:56.635Z,99877.56
2018-09-05T05:46:32.599Z,99885.05
2018-09-05T05:48:07.987Z,99888.13
2018-09-05T05:49:43.450Z,99890.14
2018-09-05T05:51:18.947Z,99884.14
2018-09-05T05:52:54.353Z,99888.24
2018-09-05T05:54:30.648Z,99890.28
2018-09-05T05:56:06.157Z,99894.06
2018-09-05T05:57:41.688Z,99889.16
2018-09-05T05:59:17.066Z,99889.73
2018-09-05T06:00:52.626Z,99888.64
2018-09-05T06:02:27.922Z,99885.66
2018-09-05T06:04:03.382Z,99890.36
2018-09-05T06:05:38.800Z,99885.02
2018-09-05T06:07:14.235Z,99893.75
2018-09-05T06:08:49.667Z,99895.56
2018-09-05T06:10:25.840Z,99894.08
2018-09-05T06:12:01.313Z,99896.65
2018-09-05T06:13:36.716Z,99894.84
2018-09-05T06:15:12.214Z,99898.73
2018-09-05T06:16:47.639Z,99892.60
2018-09-05T06:18:23.081Z,99901.20
2018-09-05T06:19:58.513Z,99897.03
2018-09-05T06:21:33.933Z,99894.87
2018-09-05T06:23:09.371Z,99893.13
2018-09-05T06:24:44.828Z,99892.18
2018-09-05T06:26:20.225Z,99888.00
2018-09-05T06:27:55.675Z,99889.22
2018-09-05T06:29:31.050Z,99888.17
2018-09-05T06:31:06.723Z,99890.12
2018-09-05T06:32:41.973Z,99886.14
2018-09-05T06:34:17.630Z,99884.08
2018-09-05T06:35:53.127Z,99885.80
2018-09-05T06:37:28.660Z,99886.90
2018-09-05T06:39:06.252Z,99884.19
2018-09-05T06:40:41.659Z,99888.13
2018-09-05T06:42:17.063Z,99885.46
2018-09-05T06:43:52.465Z,99883.84
2018-09-05T06:45:27.938Z,99881.84
2018-09-05T06:47:03.299Z,99883.40
2018-09-05T06:48:38.767Z,99880.13
2018-09-05T06:50:14.201Z,99885.11
2018-09-05T06:51:50.618Z,99882.36
2018-09-05T06:53:26.072Z,99885.64
2018-09-05T06:55:01.537Z,99886.02
2018-09-05T06:56:36.972Z,99884.72
2018-09-05T06:58:12.573Z,99885.08
2018-09-05T06:59:48.061Z,99876.77
2018-09-05T07:01:23.468Z,99881.08
2018-09-05T07:02:58.879Z,99882.14
2018-09-05T07:04:34.470Z,99887.74
2018-09-05T07:06:09.889Z,99876.45
2018-09-05T07:07:45.344Z,99882.62
2018-09-05T07:09:20.770Z,99878.17
2018-09-05T07:10:56.250Z,99881.22
2018-09-05T07:12:31.689Z,99878.93
2018-09-05T07:14:07.461Z,99881.42
2018-09-05T07:15:42.954Z,99881.27
2018-09-05T07:17:18.387Z,99882.28
2018-09-05T07:18:53.822Z,99884.95
2018-09-05T07:20:29.309Z,99876.47
2018-09-05T07:22:04.847Z,99878.95
2018-09-05T07:23:40.182Z,99884.12
2018-09-05T07:25:15.620Z,99879.63
2018-09-05T07:26:51.078Z,99879.59
2018-09-05T07:28:26.853Z,99886.41
2018-09-05T07:30:02.309Z,99891.95
2018-09-05T07:31:37.754Z,99886.98
2018-09-05T07:33:13.264Z,99886.14
2018-09-05T07:34:49.116Z,99881.14
2018-09-05T07:36:29.753Z,99883.16
2018-09-05T07:38:10.517Z,99883.35
2018-09-05T07:39:45.906Z,99886.72
2018-09-05T07:41:21.600Z,99883.34
2018-09-05T07:42:57.033Z,99884.50
2018-09-05T07:44:32.431Z,99885.99
2018-09-05T07:46:07.946Z,99886.02
2018-09-05T07:47:44.392Z,99879.98
2018-09-05T07:49:19.839Z,99886.00
2018-09-05T07:50:56.232Z,99892.98
2018-09-05T07:52:31.725Z,99889.66
2018-09-05T07:54:07.181Z,99891.01
2018-09-05T07:55:42.594Z,99890.23
2018-09-05T07:57:18.125Z,99892.71
2018-09-05T07:58:53.483Z,99887.34
2018-09-05T08:00:28.943Z,99890.33
2018-09-05T08:02:04.444Z,99891.31
2018-09-05T08:03:39.874Z,99885.66
2018-09-05T08:05:15.298Z,99889.69
2018-09-05T08:06:50.735Z,99882.37
2018-09-05T08:08:26.206Z,99890.04
2018-09-05T08:10:01.684Z,99893.06
2018-09-05T08:11:38.066Z,99889.55
2018-09-05T08:13:13.642Z,99894.03
2018-09-05T08:14:49.069Z,99893.36
2018-09-05T08:16:25.728Z,99892.18
2018-09-05T08:18:01.180Z,99889.96
2018-09-05T08:19:36.816Z,99892.80
2018-09-05T08:21:12.280Z,99886.74
2018-09-05T08:22:47.840Z,99888.23
2018-09-05T08:24:24.329Z,99894.71
2018-09-05T08:25:59.683Z,99892.88
2018-09-05T08:27:35.119Z,99892.13
2018-09-05T08:29:10.516Z,99886.25
2018-09-05T08:30:45.941Z,99889.53
2018-09-05T08:32:21.536Z,99887.66
2018-09-05T08:33:56.934Z,99889.34
2018-09-05T08:35:32.774Z,99890.65
2018-09-05T08:37:08.186Z,99890.16
2018-09-05T08:38:43.440Z,99887.77
2018-09-05T08:40:18.924Z,99891.97
2018-09-05T08:41:54.449Z,99885.84
2018-09-05T08:43:29.762Z,99884.59
2018-09-05T08:45:05.905Z,99889.61
2018-09-05T08:46:41.166Z,99885.73
2018-09-05T08:48:16.636Z,99885.00
2018-09-05T08:49:52.054Z,99888.12
2018-09-05T08:51:27.494Z,99886.14
2018-09-05T08:53:09.671Z,99887.47
2018-09-05T08:54:45.091Z,99891.23
2018-09-05T08:56:20.638Z,99881.98
2018-09-05T08:57:56.018Z,99888.12
2018-09-05T08:59:31.464Z,99882.59
2018-09-05T09:01:07.286Z,99890.59
2018-09-05T09:02:42.822Z,99888.60
2018-09-05T09:04:18.306Z,99887.22
2018-09-05T09:05:53.780Z,99884.30
2018-09-05T09:07:29.287Z,99883.09
2018-09-05T09:09:07.776Z,99885.62
2018-09-05T09:10:43.194Z,99883.59
2018-09-05T09:12:19.028Z,99878.66
2018-09-05T09:13:54.557Z,99881.77
2018-09-05T09:15:30.346Z,99884.12
2018-09-05T09:17:05.782Z,99882.73
2018-09-05T09:18:41.253Z,99878.04
2018-09-05T09:20:16.675Z,99878.39
2018-09-05T09:21:52.169Z,99875.14
2018-09-05T09:23:27.635Z,99875.58
2018-09-05T09:25:03.654Z,99869.99
2018-09-05T09:26:39.072Z,99870.91
2018-09-05T09:28:14.500Z,99870.27
2018-09-05T09:29:49.954Z,99868.84
2018-09-05T09:31:25.372Z,99871.47
2018-09-05T09:33:01.339Z,99872.12
2018-09-05T09:34:36.769Z,99870.69
2018-09-05T09:36:12.228Z,99865.89
2018-09-05T09:37:47.685Z,99864.35
2018-09-05T09:39:23.122Z,99871.75
2018-09-05T09:40:58.624Z,99859.88
2018-09-05T09:42:34.101Z,99863.06
2018-09-05T09:44:09.523Z,99856.91
2018-09-05T09:45:44.985Z,99855.78
2018-09-05T09:47:20.417Z,99858.34
2018-09-05T09:48:55.850Z,99849.64
2018-09-05T09:50:31.383Z,99851.95
2018-09-05T09:52:12.252Z,99849.69
2018-09-05T09:53:47.793Z,99859.52
2018-09-05T09:55:23.266Z,99849.08
2018-09-05T09:56:58.753Z,99848.62
2018-09-05T09:58:34.180Z,99851.88
2018-09-05T10:00:09.720Z,99843.03
2018-09-05T10:01:50.510Z,99833.06
2018-09-05T10:03:31.280Z,99841.63
2018-09-05T10:05:12.073Z,99833.27
2018-09-05T10:06:54.715Z,99835.70
2018-09-05T10:08:39.818Z,99831.38
2018-09-05T10:10:21.190Z,99830.25
2018-09-05T10:12:02.743Z,99829.41
2018-09-05T10:13:43.601Z,99829.45
2018-09-05T10:15:24.583Z,99827.43
2018-09-05T10:17:05.432Z,99828.95
2018-09-05T10:18:43.312Z,99828.95
2018-09-05T10:20:18.760Z,99831.59
2018-09-05T10:21:55.014Z,99826.39
2018-09-05T10:23:30.448Z,99826.01
2018-09-05T10:25:05.858Z,99823.20
2018-09-05T10:26:41.909Z,99829.83
2018-09-05T10:28:17.352Z,99826.97
2018-09-05T10:29:53.253Z,99822.94
2018-09-05T10:31:28.705Z,99823.41
2018-09-05T10:33:04.137Z,99823.15
2018-09-05T10:34:39.571Z,99822.36
2018-09-05T10:36:15.023Z,99823.91
2018-09-05T10:37:50.576Z,99819.84
2018-09-05T10:39:26.022Z,99818.37
2018-09-05T10:41:01.516Z,99812.83
2018-09-05T10:42:36.975Z,99809.66
2018-09-05T10:44:12.558Z,99811.25
2018-09-05T10:45:47.994Z,99806.34
2018-09-05T10:47:23.432Z,99806.73
2018-09-05T10:48:58.848Z,99804.30
2018-09-05T10:50:34.268Z,99806.23
2018-09-05T10:52:10.201Z,99799.75
2018-09-05T10:53:45.664Z,99805.17
2018-09-05T10:55:21.101Z,99798.91
2018-09-05T10:56:56.538Z,99793.78
2018-09-05T10:58:32.001Z,99791.47
2018-09-05T11:00:07.419Z,99795.37
2018-09-05T11:01:42.855Z,99788.70
2018-09-05T11:03:18.398Z,99792.05
2018-09-05T11:04:53.859Z,99787.59
2018-09-05T11:06:29.344Z,99792.32
2018-09-05T11:08:04.935Z,99783.92
2018-09-05T11:09:40.323Z,99784.38
2018-09-05T11:11:16.074Z,99787.09
2018-09-05T11:12:51.924Z,99784.25
2018-09-05T11:14:27.372Z,99776.78
2018-09-05T11:16:02.786Z,99775.92
2018-09-05T11:17:38.300Z,99780.91
2018-09-05T11:19:14.635Z,99780.58
2018-09-05T11:20:50.050Z,99775.31
2018-09-05T11:22:25.627Z,99777.03
2018-09-05T11:24:01.213Z,99774.58
2018-09-05T11:25:36.669Z,99771.50
2018-09-05T11:27:13.457Z,99771.46
2018-09-05T11:28:48.894Z,99767.39
2018-09-05T11:30:24.360Z,99760.11
2018-09-05T11:31:59.804Z,99766.97
2018-09-05T11:33:35.196Z,99766.47
2018-09-05T11:35:10.688Z,99771.00
2018-09-05T11:36:46.165Z,99763.42
2018-09-05T11:38:21.596Z,99762.96
2018-09-05T11:39:57.133Z,99757.83
2018-09-05T11:41:32.696Z,99759.78
2018-09-05T11:43:08.121Z,99754.05
2018-09-05T11:44:43.567Z,99763.68
2018-09-05T11:46:19.017Z,99761.89
2018-09-05T11:47:54.474Z,99756.56
2018-09-05T11:49:30.003Z,99759.44
2018-09-05T11:51:05.629Z,99757.20
2018-09-05T11:52:41.066Z,99755.56
2018-09-05T11:54:16.496Z,99764.30
2018-09-05T11:55:51.907Z,99757.07
2018-09-05T11:57:27.384Z,99753.67
2018-09-05T11:59:03.884Z,99755.25
2018-09-05T12:00:39.392Z,99752.66
2018-09-05T12:02:14.994Z,99761.19
2018-09-05T12:03:50.518Z,99757.19
2018-09-05T12:05:25.982Z,99761.64
2018-09-05T12:07:03.134Z,99751.83
2018-09-05T12:08:38.600Z,99755.23
2018-09-05T12:10:14.007Z,99746.70
2018-09-05T12:11:49.441Z,99741.72
2018-09-05T12:13:24.929Z,99744.59
2018-09-05T12:15:00.356Z,99733.97
2018-09-05T12:16:36.442Z,99738.88
2018-09-05T12:18:11.844Z,99743.03
2018-09-05T12:19:47.870Z,99741.14
2018-09-05T12:21:23.304Z,99743.39
2018-09-05T12:22:58.751Z,99731.39
2018-09-05T12:24:34.220Z,99738.98
2018-09-05T12:26:09.680Z,99728.69
2018-09-05T12:27:45.161Z,99732.98
2018-09-05T12:29:20.615Z,99736.66
2018-09-05T12:30:56.051Z,99732.73
2018-09-05T12:32:31.518Z,99726.33
2018-09-05T12:34:07.492Z,99729.78
2018-09-05T12:35:42.908Z,99720.78
2018-09-05T12:37:18.337Z,99725.97
2018-09-05T12:38:53.818Z,99721.40
2018-09-05T12:40:29.252Z,99720.66
2018-09-05T12:42:04.765Z,99725.73
2018-09-05T12:43:40.253Z,99724.64
2018-09-05T12:45:15.639Z,99720.27
2018-09-05T12:46:51.044Z,99717.68
2018-09-05T12:48:26.602Z,99709.00
2018-09-05T12:50:03.043Z,99713.21
2018-09-05T12:51:38.433Z,99710.13
2018-09-05T12:53:13.924Z,99717.99
2018-09-05T12:54:49.340Z,99699.97
2018-09-05T12:56:24.997Z,99694.27
2018-09-05T12:58:00.411Z,99698.95
2018-09-05T12:59:35.841Z,99715.91
2018-09-05T13:01:11.312Z,99698.61
2018-09-05T13:02:47.552Z,99703.89
2018-09-05T13:04:22.956Z,99701.20
2018-09-05T13:05:58.436Z,99699.17
2018-09-05T13:07:33.958Z,99696.86
2018-09-05T13:09:11.228Z,99701.84
2018-09-05T13:10:46.626Z,99696.78
2018-09-05T13:12:22.070Z,99696.03
2018-09-05T13:13:58.617Z,99701.49
2018-09-05T13:15:41.418Z,99698.95
2018-09-05T13:17:17.376Z,99699.84
2018-09-05T13:18:53.114Z,99694.45
2018-09-05T13:20:28.557Z,99699.95
2018-09-05T13:22:04.187Z,99695.99
2018-09-05T13:23:39.676Z,99692.16
2018-09-05T13:25:15.834Z,99690.88
2018-09-05T13:26:51.591Z,99681.48
2018-09-05T13:28:27.006Z,99685.05
2018-09-05T13:30:02.618Z,99685.94
2018-09-05T13:31:38.066Z,99685.78
2018-09-05T13:33:13.538Z,99683.61
2018-09-05T13:34:49.167Z,99689.39
2018-09-05T13:36:24.886Z,99689.16
2018-09-05T13:38:00.489Z,99684.25
2018-09-05T13:39:36.369Z,99681.14
2018-09-05T13:41:11.817Z,99685.19
2018-09-05T13:42:47.337Z,99684.57
2018-09-05T13:44:22.923Z,99680.66
2018-09-05T13:45:58.380Z,99672.48
2018-09-05T13:47:33.832Z,99676.29
2018-09-05T13:49:09.975Z,99676.13
2018-09-05T13:50:45.448Z,99674.17
2018-09-05T13:52:22.080Z,99679.02
2018-09-05T13:53:57.498Z,99670.95
2018-09-05T13:55:33.449Z,99673.00
2018-09-05T13:57:10.316Z,99671.52
2018-09-05T13:58:45.746Z,99668.58
2018-09-05T14:00:22.554Z,99669.83
2018-09-05T14:01:58.393Z,99666.40
2018-09-05T14:03:33.842Z,99661.84
2018-09-05T14:05:09.634Z,99666.91
2018-09-05T14:06:45.459Z,99665.94
2018-09-05T14:08:20.886Z,99656.86
2018-09-05T14:09:56.378Z,99660.54
2018-09-05T14:11:32.045Z,99665.23
2018-09-05T14:13:07.418Z,99656.91
2018-09-05T14:14:42.843Z,99648.98
2018-09-05T14:16:18.306Z,99659.60
2018-09-05T14:17:53.741Z,99652.25
2018-09-05T14:19:29.178Z,99652.86
2018-09-05T14:21:04.659Z,99654.62
2018-09-05T14:22:40.574Z,99655.66
2018-09-05T14:24:16.046Z,99665.75
2018-09-05T14:25:51.478Z,99652.34
2018-09-05T14:27:27.009Z,99654.81
2018-09-05T14:29:02.445Z,99656.58
2018-09-05T14:30:37.917Z,99655.74
2018-09-05T14:32:13.387Z,99658.22
2018-09-05T14:33:48.800Z,99653.61
2018-09-05T14:35:24.218Z,99653.14
2018-09-05T14:36:59.742Z,99649.89
2018-09-05T14:38:35.179Z,99650.86
2018-09-05T14:40:10.722Z,99648.58
2018-09-05T14:41:46.158Z,99650.02
2018-09-05T14:43:21.596Z,99654.07
2018-09-05T14:44:57.034Z,99643.63
2018-09-05T14:46:32.469Z,99649.38
2018-09-05T14:48:08.038Z,99648.67
2018-09-05T14:49:43.417Z,99650.59
2018-09-05T14:51:18.815Z,99645.20
2018-09-05T14:52:54.219Z,99649.54
2018-09-05T14:54:29.679Z,99646.14
2018-09-05T14:56:05.078Z,99639.33
2018-09-05T14:57:41.598Z,99635.37
2018-09-05T14:59:16.995Z,99636.27
2018-09-05T15:00:52.448Z,99644.50
2018-09-05T15:02:27.827Z,99640.13
2018-09-05T15:04:03.387Z,99642.12
2018-09-05T15:05:38.833Z,99637.79
2018-09-05T15:07:14.232Z,99632.23
2018-09-05T15:08:49.837Z,99637.92
2018-09-05T15:10:25.206Z,99636.63
2018-09-05T15:12:00.675Z,99633.84
2018-09-05T15:13:36.247Z,99622.67
2018-09-05T15:15:11.740Z,99628.48
2018-09-05T15:16:47.145Z,99630.77
2018-09-05T15:18:22.574Z,99624.73
2018-09-05T15:19:57.987Z,99624.66
2018-09-05T15:21:33.616Z,99625.11
2018-09-05T15:23:09.067Z,99623.66
2018-09-05T15:24:44.515Z,99620.30
2018-09-05T15:26:19.969Z,99627.38
2018-09-05T15:27:56.113Z,99617.92
2018-09-05T15:29:31.615Z,99616.80
2018-09-05T15:31:07.027Z,99623.24
2018-09-05T15:32:42.448Z,99624.17
2018-09-05T15:34:17.932Z,99620.27
2018-09-05T15:35:53.367Z,99612.80
2018-09-05T15:37:28.834Z,99616.95
2018-09-05T15:39:05.813Z,99610.80
2018-09-05T15:40:41.247Z,99613.31
2018-09-05T15:42:16.813Z,99611.86
2018-09-05T15:43:52.286Z,99613.92
2018-09-05T15:45:28.752Z,99609.59
2018-09-05T15:47:04.217Z,99609.98
2018-09-05T15:48:39.760Z,99609.88
2018-09-05T15:50:15.375Z,99609.05
2018-09-05T15:51:54.598Z,99613.03
2018-09-05T15:53:30.066Z,99608.88
2018-09-05T15:55:05.521Z,99603.66
2018-09-05T15:56:40.943Z,99611.14
2018-09-05T15:58:16.343Z,99608.01
2018-09-05T15:59:53.001Z,99604.95
2018-09-05T16:01:28.455Z,99607.44
2018-09-05T16:03:03.871Z,99606.06
2018-09-05T16:04:39.309Z,99608.77
2018-09-05T16:06:16.943Z,99604.00
2018-09-05T16:07:52.511Z,99602.36
2018-09-05T16:09:28.056Z,99605.97
2018-09-05T16:11:03.582Z,99598.09
2018-09-05T16:12:39.691Z,99605.83
2018-09-05T16:14:15.179Z,99611.30
2018-09-05T16:15:50.775Z,99608.81
2018-09-05T16:17:27.564Z,99605.30
2018-09-05T16:19:02.975Z,99606.42
2018-09-05T16:20:38.416Z,99602.72
2018-09-05T16:22:14.007Z,99606.23
2018-09-05T16:23:49.526Z,99606.23
2018-09-05T16:25:24.958Z,99604.25
2018-09-05T16:27:00.416Z,99602.34
2018-09-05T16:28:35.946Z,99616.34
2018-09-05T16:30:11.389Z,99610.11
2018-09-05T16:31:46.980Z,99608.83
2018-09-05T16:33:22.629Z,99612.83
2018-09-05T16:34:58.449Z,99611.45
2018-09-05T16:36:33.909Z,99601.36
2018-09-05T16:38:09.374Z,99602.81
2018-09-05T16:39:45.242Z,99600.33
2018-09-05T16:41:21.546Z,99604.36
2018-09-05T16:42:56.996Z,99595.83
2018-09-05T16:44:32.671Z,99603.61
2018-09-05T16:46:08.258Z,99600.52
2018-09-05T16:47:44.159Z,99601.77
2018-09-05T16:49:20.498Z,99599.41
2018-09-05T16:50:56.961Z,99601.81
2018-09-05T16:52:33.178Z,99611.36
2018-09-05T16:54:09.432Z,99607.07
2018-09-05T16:55:44.881Z,99606.82
2018-09-05T16:57:21.652Z,99605.48
2018-09-05T16:58:57.188Z,99607.38
2018-09-05T17:00:32.683Z,99608.98
2018-09-05T17:02:08.277Z,99607.97
2018-09-05T17:03:43.850Z,99613.95
2018-09-05T17:05:20.223Z,99616.56
2018-09-05T17:06:56.082Z,99608.84
2018-09-05T17:08:31.713Z,99614.28
2018-09-05T17:10:07.140Z,99615.16
2018-09-05T17:11:46.442Z,99612.30
2018-09-05T17:13:22.485Z,99616.50
2018-09-05T17:14:58.141Z,99613.52
2018-09-05T17:16:33.860Z,99615.10
2018-09-05T17:18:09.322Z,99614.45
2018-09-05T17:19:44.820Z,99608.38
2018-09-05T17:21:20.344Z,99613.81
2018-09-05T17:22:55.837Z,99612.20
2018-09-05T17:24:31.347Z,99615.30
2018-09-05T17:26:07.046Z,99609.27
2018-09-05T17:27:42.502Z,99615.33
2018-09-05T17:29:18.053Z,99608.69
2018-09-05T17:30:53.878Z,99614.81
2018-09-05T17:32:29.324Z,99607.48
2018-09-05T17:34:05.642Z,99610.27
2018-09-05T17:35:42.554Z,99616.70
2018-09-05T17:37:18.699Z,99614.34
2018-09-05T17:38:54.336Z,99615.14
2018-09-05T17:40:29.887Z,99611.13
2018-09-05T17:42:05.395Z,99613.80
2018-09-05T17:43:40.905Z,99615.64
2018-09-05T17:45:16.441Z,99614.13
2018-09-05T17:46:52.058Z,99613.45
2018-09-05T17:48:27.839Z,99616.45
2018-09-05T17:50:03.413Z,99617.53
2018-09-05T17:51:39.351Z,99618.56
2018-09-05T17:53:14.897Z,99620.27
2018-09-05T17:54:50.520Z,99612.64
2018-09-05T17:56:26.195Z,99614.27
2018-09-05T17:58:01.656Z,99608.55
2018-09-05T17:59:37.228Z,99612.36
2018-09-05T18:01:15.941Z,99618.42
2018-09-05T18:02:51.593Z,99619.63
2018-09-05T18:04:27.191Z,99621.72
2018-09-05T18:06:03.831Z,99625.73
2018-09-05T18:07:39.617Z,99620.52
2018-09-05T18:09:15.435Z,99623.54
2018-09-05T18:10:51.180Z,99621.69
2018-09-05T18:12:27.520Z,99622.30
2018-09-05T18:14:03.429Z,99625.88
2018-09-05T18:15:39.072Z,99623.27
2018-09-05T18:17:14.650Z,99624.15
2018-09-05T18:18:50.444Z,99625.59
2018-09-05T18:20:25.978Z,99626.80
2018-09-05T18:22:01.495Z,99631.00
2018-09-05T18:23:36.987Z,99634.18
2018-09-05T18:25:12.461Z,99633.03
2018-09-05T18:26:48.006Z,99631.66
2018-09-05T18:28:23.523Z,99634.34
2018-09-05T18:29:59.022Z,99628.89
2018-09-05T18:31:34.462Z,99631.66
2018-09-05T18:33:10.144Z,99635.37
2018-09-05T18:34:45.680Z,99633.05
2018-09-05T18:36:21.180Z,99629.31
2018-09-05T18:37:56.625Z,99637.84
2018-09-05T18:39:32.121Z,99639.75
2018-09-05T18:41:07.883Z,99637.08
2018-09-05T18:42:43.462Z,99638.41
2018-09-05T18:44:19.241Z,99636.73